« Back
NWS Peachtree City, Ga » Text Product » MCN Terminal Aerodrome Forecast


Printer-friendly Version
Current Version              Previous Versions:   1  2  3  4  5  6  7  8  9  

Terminal Aerodrome Forecast

136
FTUS42 KFFC 202329
TAFMCN
TAF
KMCN 202329Z 2100/2124 06005KT P6SM OVC012
     FM210400 06003KT 4SM BR OVC009
     FM210800 07003KT 2SM BR OVC004
     FM211500 07006KT 5SM BR OVC009
     FM211900 08006KT P6SM VCSH OVC015=

USA.gov is the U.S. government's official web portal to all federal, state and local government web resources and services.